Terminal Aerodrome Forecast
Issued by NWS Jackson, KY

Home | Current Version | Previous Version | Text Only | Print | Product List | Glossary On
Versions: 1 2 3 4 5 6 7 8 9 10 11 12 13 14 15 16
267
FTUS43 KJKL 302347
TAFJKL
TAF
KJKL 302347Z 0100/0124 VRB03KT P6SM SCT080 BKN100
      TEMPO 0100/0101 27010G18KT 3SM SHRA BKN025
     FM010700 26005KT P6SM BKN025
     FM011400 26007KT P6SM BKN030
     FM011700 26007G15KT P6SM SCT035=

USA.gov is the U.S. government's official web portal to all federal, state and local government web resources and services.